sensor_id;sensor_type;location;lat;lon;timestamp;P1;durP1;ratioP1;P2;durP2;ratioP2
59418;SDS011;45224;50.904;6.038;2023-03-16T00:01:11;8.07;;;3.17;;
59418;SDS011;45224;50.904;6.038;2023-03-16T00:02:42;6.57;;;2.70;;
59418;SDS011;45224;50.904;6.038;2023-03-16T00:04:13;4.03;;;2.80;;
59418;SDS011;45224;50.904;6.038;2023-03-16T00:05:46;4.87;;;2.80;;
59418;SDS011;45224;50.904;6.038;2023-03-16T00:07:21;10.63;;;3.33;;
59418;SDS011;45224;50.904;6.038;2023-03-16T00:08:52;6.47;;;2.97;;
59418;SDS011;45224;50.904;6.038;2023-03-16T00:10:27;5.55;;;2.92;;
59418;SDS011;45224;50.904;6.038;2023-03-16T00:12:01;3.50;;;2.60;;
59418;SDS011;45224;50.904;6.038;2023-03-16T00:13:32;7.68;;;2.83;;
59418;SDS011;45224;50.904;6.038;2023-03-16T00:15:02;7.23;;;3.33;;
59418;SDS011;45224;50.904;6.038;2023-03-16T00:16:33;6.25;;;3.28;;
59418;SDS011;45224;50.904;6.038;2023-03-16T00:18:04;5.03;;;2.80;;
59418;SDS011;45224;50.904;6.038;2023-03-16T00:19:35;4.33;;;2.73;;
59418;SDS011;45224;50.904;6.038;2023-03-16T00:21:05;4.17;;;2.50;;
59418;SDS011;45224;50.904;6.038;2023-03-16T00:22:36;4.63;;;2.83;;
59418;SDS011;45224;50.904;6.038;2023-03-16T00:24:06;5.67;;;2.90;;
59418;SDS011;45224;50.904;6.038;2023-03-16T00:25:37;4.38;;;2.60;;
59418;SDS011;45224;50.904;6.038;2023-03-16T00:27:08;4.40;;;2.97;;
59418;SDS011;45224;50.904;6.038;2023-03-16T00:28:43;5.95;;;2.58;;
59418;SDS011;45224;50.904;6.038;2023-03-16T00:30:14;5.27;;;2.80;;
59418;SDS011;45224;50.904;6.038;2023-03-16T00:31:44;3.63;;;2.70;;
59418;SDS011;45224;50.904;6.038;2023-03-16T00:33:15;3.40;;;2.57;;
59418;SDS011;45224;50.904;6.038;2023-03-16T00:34:46;5.63;;;3.20;;
59418;SDS011;45224;50.904;6.038;2023-03-16T00:36:16;5.18;;;2.72;;
59418;SDS011;45224;50.904;6.038;2023-03-16T00:37:47;4.47;;;2.70;;
59418;SDS011;45224;50.904;6.038;2023-03-16T00:39:17;5.00;;;2.90;;
59418;SDS011;45224;50.904;6.038;2023-03-16T00:40:50;3.95;;;2.70;;
59418;SDS011;45224;50.904;6.038;2023-03-16T00:42:21;5.47;;;3.20;;
59418;SDS011;45224;50.904;6.038;2023-03-16T00:43:56;5.18;;;3.33;;
59418;SDS011;45224;50.904;6.038;2023-03-16T00:45:27;8.03;;;3.30;;
59418;SDS011;45224;50.904;6.038;2023-03-16T00:46:57;4.27;;;2.77;;
59418;SDS011;45224;50.904;6.038;2023-03-16T00:48:28;4.27;;;2.97;;
59418;SDS011;45224;50.904;6.038;2023-03-16T00:49:58;8.07;;;3.33;;
59418;SDS011;45224;50.904;6.038;2023-03-16T00:51:31;7.97;;;3.47;;
59418;SDS011;45224;50.904;6.038;2023-03-16T00:53:03;7.82;;;3.50;;
59418;SDS011;45224;50.904;6.038;2023-03-16T00:54:33;8.73;;;3.63;;
59418;SDS011;45224;50.904;6.038;2023-03-16T00:56:04;8.10;;;3.90;;
59418;SDS011;45224;50.904;6.038;2023-03-16T00:57:35;8.90;;;3.50;;
59418;SDS011;45224;50.904;6.038;2023-03-16T00:59:06;7.53;;;3.33;;
59418;SDS011;45224;50.904;6.038;2023-03-16T01:00:37;6.38;;;3.50;;
59418;SDS011;45224;50.904;6.038;2023-03-16T01:02:09;7.80;;;3.38;;
59418;SDS011;45224;50.904;6.038;2023-03-16T01:03:41;7.35;;;3.78;;
59418;SDS011;45224;50.904;6.038;2023-03-16T01:05:12;6.97;;;3.47;;
59418;SDS011;45224;50.904;6.038;2023-03-16T01:06:44;5.80;;;3.17;;
59418;SDS011;45224;50.904;6.038;2023-03-16T01:08:15;6.72;;;3.17;;
59418;SDS011;45224;50.904;6.038;2023-03-16T01:09:46;7.03;;;3.20;;
59418;SDS011;45224;50.904;6.038;2023-03-16T01:11:18;8.02;;;3.25;;
59418;SDS011;45224;50.904;6.038;2023-03-16T01:12:50;9.73;;;4.00;;
59418;SDS011;45224;50.904;6.038;2023-03-16T01:14:25;6.75;;;3.92;;
59418;SDS011;45224;50.904;6.038;2023-03-16T01:15:55;7.15;;;3.35;;
59418;SDS011;45224;50.904;6.038;2023-03-16T01:17:26;7.47;;;3.43;;
59418;SDS011;45224;50.904;6.038;2023-03-16T01:18:56;6.30;;;3.30;;
59418;SDS011;45224;50.904;6.038;2023-03-16T01:20:27;9.87;;;3.73;;
59418;SDS011;45224;50.904;6.038;2023-03-16T01:21:57;9.53;;;3.60;;
59418;SDS011;45224;50.904;6.038;2023-03-16T01:23:28;5.40;;;3.60;;
59418;SDS011;45224;50.904;6.038;2023-03-16T01:26:31;6.88;;;3.25;;
59418;SDS011;45224;50.904;6.038;2023-03-16T01:28:01;6.30;;;3.17;;
59418;SDS011;45224;50.904;6.038;2023-03-16T01:29:32;5.82;;;3.63;;
59418;SDS011;45224;50.904;6.038;2023-03-16T01:31:04;14.10;;;3.40;;
59418;SDS011;45224;50.904;6.038;2023-03-16T01:32:38;8.45;;;3.50;;
59418;SDS011;45224;50.904;6.038;2023-03-16T01:35:52;5.45;;;3.25;;
59418;SDS011;45224;50.904;6.038;2023-03-16T01:37:25;7.38;;;2.92;;
59418;SDS011;45224;50.904;6.038;2023-03-16T01:39:02;6.47;;;3.63;;
59418;SDS011;45224;50.904;6.038;2023-03-16T01:40:38;7.72;;;2.85;;
59418;SDS011;45224;50.904;6.038;2023-03-16T01:42:09;6.67;;;3.30;;
59418;SDS011;45224;50.904;6.038;2023-03-16T01:43:40;7.15;;;3.63;;
59418;SDS011;45224;50.904;6.038;2023-03-16T01:47:19;7.75;;;3.20;;
59418;SDS011;45224;50.904;6.038;2023-03-16T01:50:34;7.20;;;3.60;;
59418;SDS011;45224;50.904;6.038;2023-03-16T01:52:09;6.60;;;3.07;;
59418;SDS011;45224;50.904;6.038;2023-03-16T01:53:44;7.13;;;2.80;;
59418;SDS011;45224;50.904;6.038;2023-03-16T01:55:17;6.90;;;3.20;;
59418;SDS011;45224;50.904;6.038;2023-03-16T01:58:21;6.70;;;3.10;;
59418;SDS011;45224;50.904;6.038;2023-03-16T02:01:23;8.50;;;3.20;;
59418;SDS011;45224;50.904;6.038;2023-03-16T02:02:57;9.20;;;3.38;;
59418;SDS011;45224;50.904;6.038;2023-03-16T02:04:45;4.93;;;2.83;;
59418;SDS011;45224;50.904;6.038;2023-03-16T02:06:23;4.25;;;3.00;;
59418;SDS011;45224;50.904;6.038;2023-03-16T02:07:58;5.93;;;3.00;;
59418;SDS011;45224;50.904;6.038;2023-03-16T02:09:32;7.65;;;3.20;;
59418;SDS011;45224;50.904;6.038;2023-03-16T02:11:06;6.78;;;2.70;;
59418;SDS011;45224;50.904;6.038;2023-03-16T02:12:51;6.82;;;2.70;;
59418;SDS011;45224;50.904;6.038;2023-03-16T02:14:22;6.43;;;2.92;;
59418;SDS011;45224;50.904;6.038;2023-03-16T02:17:26;5.10;;;2.80;;
59418;SDS011;45224;50.904;6.038;2023-03-16T02:19:04;3.80;;;2.38;;
59418;SDS011;45224;50.904;6.038;2023-03-16T02:22:17;5.93;;;2.85;;
59418;SDS011;45224;50.904;6.038;2023-03-16T02:23:48;5.43;;;2.85;;
59418;SDS011;45224;50.904;6.038;2023-03-16T02:25:22;4.93;;;3.20;;
59418;SDS011;45224;50.904;6.038;2023-03-16T02:26:58;5.20;;;2.88;;
59418;SDS011;45224;50.904;6.038;2023-03-16T02:30:22;5.82;;;2.60;;
59418;SDS011;45224;50.904;6.038;2023-03-16T02:32:03;5.50;;;2.63;;
59418;SDS011;45224;50.904;6.038;2023-03-16T02:35:07;3.92;;;2.35;;
59418;SDS011;45224;50.904;6.038;2023-03-16T02:36:39;5.18;;;2.88;;
59418;SDS011;45224;50.904;6.038;2023-03-16T02:38:12;6.05;;;2.60;;
59418;SDS011;45224;50.904;6.038;2023-03-16T02:39:49;6.55;;;2.70;;
59418;SDS011;45224;50.904;6.038;2023-03-16T02:41:22;7.97;;;3.17;;
59418;SDS011;45224;50.904;6.038;2023-03-16T02:43:19;7.03;;;2.90;;
59418;SDS011;45224;50.904;6.038;2023-03-16T02:45:05;6.57;;;2.53;;
59418;SDS011;45224;50.904;6.038;2023-03-16T02:46:38;3.90;;;2.70;;
59418;SDS011;45224;50.904;6.038;2023-03-16T02:48:13;3.97;;;2.80;;
59418;SDS011;45224;50.904;6.038;2023-03-16T02:49:48;5.78;;;3.03;;
59418;SDS011;45224;50.904;6.038;2023-03-16T02:51:19;5.80;;;2.83;;
59418;SDS011;45224;50.904;6.038;2023-03-16T02:52:50;4.72;;;2.97;;
59418;SDS011;45224;50.904;6.038;2023-03-16T02:54:20;6.77;;;3.13;;
59418;SDS011;45224;50.904;6.038;2023-03-16T02:55:51;5.37;;;2.70;;
59418;SDS011;45224;50.904;6.038;2023-03-16T02:57:21;5.88;;;2.75;;
59418;SDS011;45224;50.904;6.038;2023-03-16T02:58:52;5.53;;;2.88;;
59418;SDS011;45224;50.904;6.038;2023-03-16T03:00:24;5.78;;;2.75;;
59418;SDS011;45224;50.904;6.038;2023-03-16T03:01:55;5.32;;;2.83;;
59418;SDS011;45224;50.904;6.038;2023-03-16T03:03:26;5.07;;;3.03;;
59418;SDS011;45224;50.904;6.038;2023-03-16T03:04:56;7.03;;;3.33;;
59418;SDS011;45224;50.904;6.038;2023-03-16T03:06:29;6.15;;;3.30;;
59418;SDS011;45224;50.904;6.038;2023-03-16T03:08:01;6.30;;;2.95;;
59418;SDS011;45224;50.904;6.038;2023-03-16T03:09:32;6.07;;;3.13;;
59418;SDS011;45224;50.904;6.038;2023-03-16T03:11:03;9.32;;;3.65;;
59418;SDS011;45224;50.904;6.038;2023-03-16T03:12:34;11.47;;;4.03;;
59418;SDS011;45224;50.904;6.038;2023-03-16T03:14:07;5.15;;;3.13;;
59418;SDS011;45224;50.904;6.038;2023-03-16T03:15:40;6.70;;;3.65;;
59418;SDS011;45224;50.904;6.038;2023-03-16T03:17:13;6.05;;;3.60;;
59418;SDS011;45224;50.904;6.038;2023-03-16T03:18:43;6.10;;;3.60;;
59418;SDS011;45224;50.904;6.038;2023-03-16T03:20:14;6.30;;;3.97;;
59418;SDS011;45224;50.904;6.038;2023-03-16T03:21:47;7.60;;;3.58;;
59418;SDS011;45224;50.904;6.038;2023-03-16T03:23:17;7.70;;;3.80;;
59418;SDS011;45224;50.904;6.038;2023-03-16T03:24:48;14.43;;;4.20;;
59418;SDS011;45224;50.904;6.038;2023-03-16T03:26:18;7.40;;;3.57;;
59418;SDS011;45224;50.904;6.038;2023-03-16T03:27:51;6.03;;;3.63;;
59418;SDS011;45224;50.904;6.038;2023-03-16T03:29:24;7.57;;;3.60;;
59418;SDS011;45224;50.904;6.038;2023-03-16T03:30:54;7.00;;;3.97;;
59418;SDS011;45224;50.904;6.038;2023-03-16T03:32:25;10.90;;;3.77;;
59418;SDS011;45224;50.904;6.038;2023-03-16T03:33:55;7.30;;;3.97;;
59418;SDS011;45224;50.904;6.038;2023-03-16T03:35:26;5.67;;;3.90;;
59418;SDS011;45224;50.904;6.038;2023-03-16T03:36:58;8.35;;;4.20;;
59418;SDS011;45224;50.904;6.038;2023-03-16T03:38:29;7.20;;;3.83;;
59418;SDS011;45224;50.904;6.038;2023-03-16T03:40:00;9.53;;;4.20;;
59418;SDS011;45224;50.904;6.038;2023-03-16T03:41:36;8.88;;;3.80;;
59418;SDS011;45224;50.904;6.038;2023-03-16T03:43:09;6.30;;;3.78;;
59418;SDS011;45224;50.904;6.038;2023-03-16T03:44:44;8.18;;;4.10;;
59418;SDS011;45224;50.904;6.038;2023-03-16T03:46:15;7.60;;;4.23;;
59418;SDS011;45224;50.904;6.038;2023-03-16T03:47:45;9.00;;;4.20;;
59418;SDS011;45224;50.904;6.038;2023-03-16T03:49:21;10.13;;;4.03;;
59418;SDS011;45224;50.904;6.038;2023-03-16T03:50:53;7.22;;;4.20;;
59418;SDS011;45224;50.904;6.038;2023-03-16T03:52:40;6.95;;;4.00;;
59418;SDS011;45224;50.904;6.038;2023-03-16T03:54:11;8.37;;;4.70;;
59418;SDS011;45224;50.904;6.038;2023-03-16T03:56:01;6.63;;;4.07;;
59418;SDS011;45224;50.904;6.038;2023-03-16T03:57:32;11.75;;;4.47;;
59418;SDS011;45224;50.904;6.038;2023-03-16T03:59:02;8.82;;;4.95;;
59418;SDS011;45224;50.904;6.038;2023-03-16T04:00:53;9.32;;;4.65;;
59418;SDS011;45224;50.904;6.038;2023-03-16T04:02:23;7.70;;;4.23;;
59418;SDS011;45224;50.904;6.038;2023-03-16T04:03:57;10.70;;;4.60;;
59418;SDS011;45224;50.904;6.038;2023-03-16T04:05:27;7.93;;;3.70;;
59418;SDS011;45224;50.904;6.038;2023-03-16T04:06:58;6.80;;;4.40;;
59418;SDS011;45224;50.904;6.038;2023-03-16T04:08:29;8.27;;;3.83;;
59418;SDS011;45224;50.904;6.038;2023-03-16T04:10:00;8.50;;;4.20;;
59418;SDS011;45224;50.904;6.038;2023-03-16T04:11:37;7.53;;;4.10;;
59418;SDS011;45224;50.904;6.038;2023-03-16T04:13:08;7.30;;;4.20;;
59418;SDS011;45224;50.904;6.038;2023-03-16T04:14:39;6.78;;;3.75;;
59418;SDS011;45224;50.904;6.038;2023-03-16T04:16:12;7.40;;;3.80;;
59418;SDS011;45224;50.904;6.038;2023-03-16T04:17:47;5.35;;;3.55;;
59418;SDS011;45224;50.904;6.038;2023-03-16T04:20:49;6.33;;;3.27;;
59418;SDS011;45224;50.904;6.038;2023-03-16T04:22:24;6.35;;;3.97;;
59418;SDS011;45224;50.904;6.038;2023-03-16T04:23:55;7.80;;;3.60;;
59418;SDS011;45224;50.904;6.038;2023-03-16T04:25:33;8.48;;;3.78;;
59418;SDS011;45224;50.904;6.038;2023-03-16T04:27:08;6.55;;;3.63;;
59418;SDS011;45224;50.904;6.038;2023-03-16T04:28:40;6.30;;;3.88;;
59418;SDS011;45224;50.904;6.038;2023-03-16T04:30:13;8.75;;;3.75;;
59418;SDS011;45224;50.904;6.038;2023-03-16T04:31:49;6.65;;;3.50;;
59418;SDS011;45224;50.904;6.038;2023-03-16T04:33:23;5.88;;;3.58;;
59418;SDS011;45224;50.904;6.038;2023-03-16T04:34:54;8.67;;;3.77;;
59418;SDS011;45224;50.904;6.038;2023-03-16T04:36:27;5.60;;;3.50;;
59418;SDS011;45224;50.904;6.038;2023-03-16T04:37:58;4.97;;;3.10;;
59418;SDS011;45224;50.904;6.038;2023-03-16T04:39:38;7.55;;;3.33;;
59418;SDS011;45224;50.904;6.038;2023-03-16T04:41:09;6.55;;;3.90;;
59418;SDS011;45224;50.904;6.038;2023-03-16T04:42:46;7.03;;;3.33;;
59418;SDS011;45224;50.904;6.038;2023-03-16T04:44:21;5.40;;;3.10;;
59418;SDS011;45224;50.904;6.038;2023-03-16T04:45:53;6.78;;;3.42;;
59418;SDS011;45224;50.904;6.038;2023-03-16T04:47:24;6.25;;;3.20;;
59418;SDS011;45224;50.904;6.038;2023-03-16T04:48:55;10.27;;;3.70;;
59418;SDS011;45224;50.904;6.038;2023-03-16T04:50:27;7.28;;;3.65;;
59418;SDS011;45224;50.904;6.038;2023-03-16T04:51:58;7.28;;;3.42;;
59418;SDS011;45224;50.904;6.038;2023-03-16T04:53:31;9.48;;;3.35;;
59418;SDS011;45224;50.904;6.038;2023-03-16T04:55:05;8.90;;;3.72;;
59418;SDS011;45224;50.904;6.038;2023-03-16T04:56:36;10.32;;;3.63;;
59418;SDS011;45224;50.904;6.038;2023-03-16T04:58:13;7.47;;;3.60;;
59418;SDS011;45224;50.904;6.038;2023-03-16T04:59:44;6.97;;;3.33;;
59418;SDS011;45224;50.904;6.038;2023-03-16T05:01:33;6.03;;;3.20;;
59418;SDS011;45224;50.904;6.038;2023-03-16T05:03:06;4.93;;;3.35;;
59418;SDS011;45224;50.904;6.038;2023-03-16T05:04:39;9.00;;;3.55;;
59418;SDS011;45224;50.904;6.038;2023-03-16T05:06:13;5.18;;;3.30;;
59418;SDS011;45224;50.904;6.038;2023-03-16T05:09:15;5.22;;;3.30;;
59418;SDS011;45224;50.904;6.038;2023-03-16T05:10:47;6.55;;;3.28;;
59418;SDS011;45224;50.904;6.038;2023-03-16T05:12:18;4.95;;;3.28;;
59418;SDS011;45224;50.904;6.038;2023-03-16T05:13:50;4.60;;;2.92;;
59418;SDS011;45224;50.904;6.038;2023-03-16T05:15:23;7.47;;;3.45;;
59418;SDS011;45224;50.904;6.038;2023-03-16T05:17:11;6.43;;;3.30;;
59418;SDS011;45224;50.904;6.038;2023-03-16T05:18:43;9.13;;;3.90;;
59418;SDS011;45224;50.904;6.038;2023-03-16T05:20:14;6.27;;;3.13;;
59418;SDS011;45224;50.904;6.038;2023-03-16T05:21:48;5.43;;;3.08;;
59418;SDS011;45224;50.904;6.038;2023-03-16T05:23:19;7.38;;;3.03;;
59418;SDS011;45224;50.904;6.038;2023-03-16T05:24:55;5.65;;;3.42;;
59418;SDS011;45224;50.904;6.038;2023-03-16T05:26:25;8.27;;;3.13;;
59418;SDS011;45224;50.904;6.038;2023-03-16T05:27:57;3.47;;;2.65;;
59418;SDS011;45224;50.904;6.038;2023-03-16T05:29:46;8.18;;;3.10;;
59418;SDS011;45224;50.904;6.038;2023-03-16T05:31:17;5.35;;;2.90;;
59418;SDS011;45224;50.904;6.038;2023-03-16T05:32:53;4.93;;;2.80;;
59418;SDS011;45224;50.904;6.038;2023-03-16T05:34:26;4.88;;;2.58;;
59418;SDS011;45224;50.904;6.038;2023-03-16T05:35:57;5.23;;;2.93;;
59418;SDS011;45224;50.904;6.038;2023-03-16T05:37:28;4.63;;;2.88;;
59418;SDS011;45224;50.904;6.038;2023-03-16T05:39:00;5.75;;;2.75;;
59418;SDS011;45224;50.904;6.038;2023-03-16T05:40:36;4.40;;;3.00;;
59418;SDS011;45224;50.904;6.038;2023-03-16T05:42:22;5.78;;;2.97;;
59418;SDS011;45224;50.904;6.038;2023-03-16T05:44:00;5.05;;;2.65;;
59418;SDS011;45224;50.904;6.038;2023-03-16T05:45:41;4.72;;;2.78;;
59418;SDS011;45224;50.904;6.038;2023-03-16T05:47:15;4.93;;;2.88;;
59418;SDS011;45224;50.904;6.038;2023-03-16T05:48:50;7.47;;;3.05;;
59418;SDS011;45224;50.904;6.038;2023-03-16T05:50:22;7.57;;;3.17;;
59418;SDS011;45224;50.904;6.038;2023-03-16T05:51:53;7.10;;;3.08;;
59418;SDS011;45224;50.904;6.038;2023-03-16T05:53:24;8.33;;;3.10;;
59418;SDS011;45224;50.904;6.038;2023-03-16T05:55:00;4.65;;;2.78;;
59418;SDS011;45224;50.904;6.038;2023-03-16T05:56:31;6.43;;;3.05;;
59418;SDS011;45224;50.904;6.038;2023-03-16T05:58:03;5.40;;;2.70;;
59418;SDS011;45224;50.904;6.038;2023-03-16T05:59:34;6.43;;;3.20;;
59418;SDS011;45224;50.904;6.038;2023-03-16T06:01:06;7.22;;;3.00;;
59418;SDS011;45224;50.904;6.038;2023-03-16T06:02:43;5.97;;;2.78;;
59418;SDS011;45224;50.904;6.038;2023-03-16T06:04:18;5.38;;;3.05;;
59418;SDS011;45224;50.904;6.038;2023-03-16T06:05:48;5.63;;;3.23;;
59418;SDS011;45224;50.904;6.038;2023-03-16T06:07:24;4.68;;;3.00;;
59418;SDS011;45224;50.904;6.038;2023-03-16T06:08:57;5.68;;;3.10;;
59418;SDS011;45224;50.904;6.038;2023-03-16T06:10:29;4.28;;;2.95;;
59418;SDS011;45224;50.904;6.038;2023-03-16T06:12:00;5.07;;;3.07;;
59418;SDS011;45224;50.904;6.038;2023-03-16T06:13:30;6.70;;;3.10;;
59418;SDS011;45224;50.904;6.038;2023-03-16T06:15:01;5.70;;;3.10;;
59418;SDS011;45224;50.904;6.038;2023-03-16T06:16:36;6.90;;;3.00;;
59418;SDS011;45224;50.904;6.038;2023-03-16T06:18:07;7.55;;;3.03;;
59418;SDS011;45224;50.904;6.038;2023-03-16T06:19:37;4.63;;;2.90;;
59418;SDS011;45224;50.904;6.038;2023-03-16T06:21:08;6.43;;;2.37;;
59418;SDS011;45224;50.904;6.038;2023-03-16T06:22:39;5.00;;;2.65;;
59418;SDS011;45224;50.904;6.038;2023-03-16T06:24:11;5.50;;;2.60;;
59418;SDS011;45224;50.904;6.038;2023-03-16T06:25:41;7.87;;;2.73;;
59418;SDS011;45224;50.904;6.038;2023-03-16T06:27:14;7.03;;;2.70;;
59418;SDS011;45224;50.904;6.038;2023-03-16T06:29:02;7.65;;;3.33;;
59418;SDS011;45224;50.904;6.038;2023-03-16T06:30:33;5.47;;;2.95;;
59418;SDS011;45224;50.904;6.038;2023-03-16T06:32:04;8.80;;;3.60;;
59418;SDS011;45224;50.904;6.038;2023-03-16T06:33:34;5.28;;;3.10;;
59418;SDS011;45224;50.904;6.038;2023-03-16T06:35:06;6.35;;;2.65;;
59418;SDS011;45224;50.904;6.038;2023-03-16T06:36:39;6.80;;;2.72;;
59418;SDS011;45224;50.904;6.038;2023-03-16T06:38:13;5.78;;;2.55;;
59418;SDS011;45224;50.904;6.038;2023-03-16T06:40:12;4.95;;;2.47;;
59418;SDS011;45224;50.904;6.038;2023-03-16T06:41:44;4.50;;;2.28;;
59418;SDS011;45224;50.904;6.038;2023-03-16T06:43:17;3.83;;;2.55;;
59418;SDS011;45224;50.904;6.038;2023-03-16T06:44:48;4.80;;;2.50;;
59418;SDS011;45224;50.904;6.038;2023-03-16T06:46:19;5.65;;;2.70;;
59418;SDS011;45224;50.904;6.038;2023-03-16T06:49:21;10.05;;;2.70;;
59418;SDS011;45224;50.904;6.038;2023-03-16T06:50:52;5.50;;;2.20;;
59418;SDS011;45224;50.904;6.038;2023-03-16T06:52:29;6.20;;;2.40;;
59418;SDS011;45224;50.904;6.038;2023-03-16T06:53:59;4.35;;;2.20;;
59418;SDS011;45224;50.904;6.038;2023-03-16T06:55:30;4.68;;;2.53;;
59418;SDS011;45224;50.904;6.038;2023-03-16T06:57:01;6.93;;;2.60;;
59418;SDS011;45224;50.904;6.038;2023-03-16T06:58:31;3.23;;;2.10;;
59418;SDS011;45224;50.904;6.038;2023-03-16T07:00:02;5.13;;;2.60;;
59418;SDS011;45224;50.904;6.038;2023-03-16T07:01:33;5.82;;;2.33;;
59418;SDS011;45224;50.904;6.038;2023-03-16T07:04:36;5.63;;;1.92;;
59418;SDS011;45224;50.904;6.038;2023-03-16T07:06:07;6.70;;;2.63;;
59418;SDS011;45224;50.904;6.038;2023-03-16T07:07:39;6.25;;;2.45;;
59418;SDS011;45224;50.904;6.038;2023-03-16T07:09:13;5.50;;;2.40;;
59418;SDS011;45224;50.904;6.038;2023-03-16T07:10:45;4.03;;;2.03;;
59418;SDS011;45224;50.904;6.038;2023-03-16T07:12:15;5.40;;;2.37;;
59418;SDS011;45224;50.904;6.038;2023-03-16T07:13:46;2.93;;;1.93;;
59418;SDS011;45224;50.904;6.038;2023-03-16T07:15:18;4.30;;;2.03;;
59418;SDS011;45224;50.904;6.038;2023-03-16T07:16:50;6.60;;;2.10;;
59418;SDS011;45224;50.904;6.038;2023-03-16T07:18:22;7.28;;;2.30;;
59418;SDS011;45224;50.904;6.038;2023-03-16T07:19:55;5.22;;;2.53;;
59418;SDS011;45224;50.904;6.038;2023-03-16T07:21:25;5.70;;;2.03;;
59418;SDS011;45224;50.904;6.038;2023-03-16T07:22:56;3.78;;;2.50;;
59418;SDS011;45224;50.904;6.038;2023-03-16T07:24:27;6.20;;;1.92;;
59418;SDS011;45224;50.904;6.038;2023-03-16T07:25:57;5.50;;;2.30;;
59418;SDS011;45224;50.904;6.038;2023-03-16T07:27:29;5.45;;;2.25;;
59418;SDS011;45224;50.904;6.038;2023-03-16T07:29:02;3.30;;;1.85;;
59418;SDS011;45224;50.904;6.038;2023-03-16T07:30:36;3.17;;;2.00;;
59418;SDS011;45224;50.904;6.038;2023-03-16T07:32:08;8.27;;;1.90;;
59418;SDS011;45224;50.904;6.038;2023-03-16T07:33:41;3.30;;;1.70;;
59418;SDS011;45224;50.904;6.038;2023-03-16T07:35:16;3.05;;;1.80;;
59418;SDS011;45224;50.904;6.038;2023-03-16T07:36:48;3.45;;;1.77;;
59418;SDS011;45224;50.904;6.038;2023-03-16T07:38:21;4.60;;;1.63;;
59418;SDS011;45224;50.904;6.038;2023-03-16T07:39:52;3.22;;;1.80;;
59418;SDS011;45224;50.904;6.038;2023-03-16T07:41:23;5.85;;;1.80;;
59418;SDS011;45224;50.904;6.038;2023-03-16T07:42:54;5.00;;;1.90;;
59418;SDS011;45224;50.904;6.038;2023-03-16T07:44:37;5.88;;;2.00;;
59418;SDS011;45224;50.904;6.038;2023-03-16T07:46:08;4.13;;;1.73;;
59418;SDS011;45224;50.904;6.038;2023-03-16T07:47:43;3.47;;;1.60;;
59418;SDS011;45224;50.904;6.038;2023-03-16T07:49:28;2.20;;;1.67;;
59418;SDS011;45224;50.904;6.038;2023-03-16T07:51:00;2.70;;;1.55;;
59418;SDS011;45224;50.904;6.038;2023-03-16T07:52:32;4.15;;;1.80;;
59418;SDS011;45224;50.904;6.038;2023-03-16T07:54:03;3.63;;;1.98;;
59418;SDS011;45224;50.904;6.038;2023-03-16T07:55:36;3.30;;;1.73;;
59418;SDS011;45224;50.904;6.038;2023-03-16T07:57:08;6.97;;;1.70;;
59418;SDS011;45224;50.904;6.038;2023-03-16T07:58:45;7.45;;;2.55;;
59418;SDS011;45224;50.904;6.038;2023-03-16T08:00:16;3.92;;;1.75;;
59418;SDS011;45224;50.904;6.038;2023-03-16T08:01:52;5.88;;;1.80;;
59418;SDS011;45224;50.904;6.038;2023-03-16T08:03:23;4.43;;;1.70;;
59418;SDS011;45224;50.904;6.038;2023-03-16T08:06:25;4.45;;;1.75;;
59418;SDS011;45224;50.904;6.038;2023-03-16T08:07:56;5.55;;;1.83;;
59418;SDS011;45224;50.904;6.038;2023-03-16T08:09:29;5.55;;;1.83;;
59418;SDS011;45224;50.904;6.038;2023-03-16T08:11:00;6.78;;;3.10;;
59418;SDS011;45224;50.904;6.038;2023-03-16T08:12:41;6.00;;;2.67;;
59418;SDS011;45224;50.904;6.038;2023-03-16T08:14:11;4.43;;;1.97;;
59418;SDS011;45224;50.904;6.038;2023-03-16T08:15:57;5.32;;;1.90;;
59418;SDS011;45224;50.904;6.038;2023-03-16T08:17:37;6.25;;;1.70;;
59418;SDS011;45224;50.904;6.038;2023-03-16T08:19:15;5.90;;;1.60;;
59418;SDS011;45224;50.904;6.038;2023-03-16T08:20:47;3.35;;;1.90;;
59418;SDS011;45224;50.904;6.038;2023-03-16T08:22:17;2.97;;;1.50;;
59418;SDS011;45224;50.904;6.038;2023-03-16T08:23:50;3.95;;;1.50;;
59418;SDS011;45224;50.904;6.038;2023-03-16T08:25:22;3.75;;;1.98;;
59418;SDS011;45224;50.904;6.038;2023-03-16T08:27:07;2.95;;;1.60;;
59418;SDS011;45224;50.904;6.038;2023-03-16T08:28:40;2.90;;;1.80;;
59418;SDS011;45224;50.904;6.038;2023-03-16T08:30:15;5.07;;;1.67;;
59418;SDS011;45224;50.904;6.038;2023-03-16T08:31:53;6.20;;;1.85;;
59418;SDS011;45224;50.904;6.038;2023-03-16T08:33:33;3.40;;;1.50;;
59418;SDS011;45224;50.904;6.038;2023-03-16T08:35:06;6.07;;;2.13;;
59418;SDS011;45224;50.904;6.038;2023-03-16T08:36:39;2.70;;;1.45;;
59418;SDS011;45224;50.904;6.038;2023-03-16T08:38:13;8.10;;;1.75;;
59418;SDS011;45224;50.904;6.038;2023-03-16T08:39:45;5.57;;;1.90;;
59418;SDS011;45224;50.904;6.038;2023-03-16T08:41:19;3.88;;;1.70;;
59418;SDS011;45224;50.904;6.038;2023-03-16T08:42:52;2.58;;;1.58;;
59418;SDS011;45224;50.904;6.038;2023-03-16T08:44:23;4.47;;;1.67;;
59418;SDS011;45224;50.904;6.038;2023-03-16T08:45:55;4.45;;;1.58;;
59418;SDS011;45224;50.904;6.038;2023-03-16T08:47:29;5.50;;;1.58;;
59418;SDS011;45224;50.904;6.038;2023-03-16T08:50:32;2.70;;;1.30;;
59418;SDS011;45224;50.904;6.038;2023-03-16T08:52:03;4.07;;;1.47;;
59418;SDS011;45224;50.904;6.038;2023-03-16T08:55:06;3.05;;;1.15;;
59418;SDS011;45224;50.904;6.038;2023-03-16T08:56:38;4.55;;;1.50;;
59418;SDS011;45224;50.904;6.038;2023-03-16T08:58:09;12.03;;;1.63;;
59418;SDS011;45224;50.904;6.038;2023-03-16T08:59:41;4.07;;;1.73;;
59418;SDS011;45224;50.904;6.038;2023-03-16T09:01:12;3.23;;;1.50;;
59418;SDS011;45224;50.904;6.038;2023-03-16T09:02:44;3.58;;;1.52;;
59418;SDS011;45224;50.904;6.038;2023-03-16T09:04:14;5.40;;;1.40;;
59418;SDS011;45224;50.904;6.038;2023-03-16T09:05:45;3.00;;;1.27;;
59418;SDS011;45224;50.904;6.038;2023-03-16T09:08:47;7.17;;;1.50;;
59418;SDS011;45224;50.904;6.038;2023-03-16T09:10:18;6.03;;;1.63;;
59418;SDS011;45224;50.904;6.038;2023-03-16T09:11:52;3.60;;;1.90;;
59418;SDS011;45224;50.904;6.038;2023-03-16T09:13:22;7.73;;;1.70;;
59418;SDS011;45224;50.904;6.038;2023-03-16T09:14:53;4.07;;;1.63;;
59418;SDS011;45224;50.904;6.038;2023-03-16T09:16:24;3.65;;;1.45;;
59418;SDS011;45224;50.904;6.038;2023-03-16T09:17:55;2.85;;;1.20;;
59418;SDS011;45224;50.904;6.038;2023-03-16T09:19:28;3.83;;;1.45;;
59418;SDS011;45224;50.904;6.038;2023-03-16T09:21:02;4.28;;;1.17;;
59418;SDS011;45224;50.904;6.038;2023-03-16T09:22:34;4.18;;;1.40;;
59418;SDS011;45224;50.904;6.038;2023-03-16T09:24:06;2.65;;;1.45;;
59418;SDS011;45224;50.904;6.038;2023-03-16T09:25:37;3.55;;;1.45;;
59418;SDS011;45224;50.904;6.038;2023-03-16T09:27:08;4.15;;;1.40;;
59418;SDS011;45224;50.904;6.038;2023-03-16T09:28:40;3.58;;;1.58;;
59418;SDS011;45224;50.904;6.038;2023-03-16T09:30:11;3.58;;;1.30;;
59418;SDS011;45224;50.904;6.038;2023-03-16T09:31:42;6.05;;;1.60;;
59418;SDS011;45224;50.904;6.038;2023-03-16T09:33:12;4.30;;;1.17;;
59418;SDS011;45224;50.904;6.038;2023-03-16T09:34:43;2.53;;;1.20;;
59418;SDS011;45224;50.904;6.038;2023-03-16T09:36:13;5.03;;;1.37;;
59418;SDS011;45224;50.904;6.038;2023-03-16T09:37:44;4.05;;;1.40;;
59418;SDS011;45224;50.904;6.038;2023-03-16T09:39:15;2.37;;;1.27;;
59418;SDS011;45224;50.904;6.038;2023-03-16T09:40:47;3.38;;;1.13;;
59418;SDS011;45224;50.904;6.038;2023-03-16T09:42:29;2.30;;;1.10;;
59418;SDS011;45224;50.904;6.038;2023-03-16T09:45:41;2.65;;;1.13;;
59418;SDS011;45224;50.904;6.038;2023-03-16T09:47:35;7.07;;;2.60;;
59418;SDS011;45224;50.904;6.038;2023-03-16T09:49:11;2.63;;;1.48;;
59418;SDS011;45224;50.904;6.038;2023-03-16T09:50:46;2.53;;;1.05;;
59418;SDS011;45224;50.904;6.038;2023-03-16T09:54:04;2.65;;;1.00;;